< Typhoon 196402 1964 Season Typhoon 196404 >
Typhoon 196403 (WINNIE)
General InformationTrack Information on Google Maps || Disaster Info.ResourceGoogle EarthGE AnimationAtom FeedGeoJSON
Detalied Best Track (Time Zone = UTC)
Year Month Day Hour Lat. Long. Pressure (hPa) Wind (kt) Class Image Chart
1964 6 24 18 8.6 142.1 1008 0 2 -- Chart
1964 6 25 00 9.3 140.8 1006 0 2 -- Chart
1964 6 25 06 10.0 139.6 1004 0 2 -- Chart
1964 6 25 12 10.8 138.5 1004 0 2 -- Chart
1964 6 25 18 11.4 137.5 1002 0 2 -- Chart
1964 6 26 00 11.9 136.5 1002 0 2 -- Chart
1964 6 26 06 12.2 135.5 1000 0 2 -- Chart
1964 6 26 12 12.6 134.4 1000 0 2 -- Chart
1964 6 26 18 13.3 133.5 998 0 9 -- Chart
1964 6 27 00 13.5 132.7 998 0 9 -- Chart
1964 6 27 06 13.6 132.2 996 0 9 -- Chart
1964 6 27 12 13.9 131.2 995 0 9 -- Chart
1964 6 27 18 14.2 130.3 994 0 9 -- Chart
1964 6 28 00 14.5 129.4 990 0 9 -- Chart
1964 6 28 06 14.6 127.9 990 0 9 -- Chart
1964 6 28 12 14.6 127.0 990 0 9 -- Chart
1964 6 28 18 14.7 125.9 985 0 9 -- Chart
1964 6 29 00 14.7 124.8 980 0 9 -- Chart
1964 6 29 06 14.7 123.5 980 0 9 -- Chart
1964 6 29 12 14.7 122.2 980 0 9 -- Chart
1964 6 29 18 14.6 121.0 982 0 9 -- Chart
1964 6 30 00 14.8 119.8 980 0 9 -- Chart
1964 6 30 06 15.6 118.2 975 0 9 -- Chart
1964 6 30 12 16.2 117.1 975 0 9 -- Chart
1964 6 30 18 16.5 116.5 970 0 9 -- Chart
1964 7 1 00 16.7 115.3 970 0 9 -- Chart
1964 7 1 06 17.7 114.2 970 0 9 -- Chart
1964 7 1 12 18.5 112.7 970 0 9 -- Chart
1964 7 1 18 18.9 112.0 970 0 9 -- Chart
1964 7 2 00 19.7 111.0 968 0 9 -- Chart
1964 7 2 06 20.0 110.0 968 0 9 -- Chart
1964 7 2 12 20.5 109.0 968 0 9 -- Chart
1964 7 2 18 20.9 108.0 968 0 9 -- Chart
1964 7 3 00 21.4 107.0 976 0 9 -- Chart
1964 7 3 06 21.8 106.0 985 0 9 -- Chart
1964 7 3 12 22.2 105.0 990 0 2 -- Chart
1964 7 3 18 22.6 103.9 994 0 2 -- Chart
1964 7 4 00 23.0 102.8 996 0 2 -- Chart
1964 7 4 06 23.3 101.0 996 0 2 -- Chart
1964 7 4 12 24.0 100.0 998 0 2 -- Chart
Japan Meteorological Agency Best Track Data | Correction Date : 1989-06-01
< Typhoon 196402 1964 Season Typhoon 196404 >

Help